sensor_id;sensor_type;location;lat;lon;timestamp;P1;durP1;ratioP1;P2;durP2;ratioP2
49153;SDS011;49455;52.252;9.124;2022-09-29T07:24:52;34.92;;;23.02;;
49153;SDS011;49455;52.252;9.124;2022-09-29T07:29:53;36.47;;;23.67;;
49153;SDS011;49455;52.252;9.124;2022-09-29T07:34:53;39.42;;;23.85;;
49153;SDS011;49455;52.252;9.124;2022-09-29T07:39:54;38.70;;;24.63;;
49153;SDS011;49455;52.252;9.124;2022-09-29T07:44:54;42.33;;;24.75;;
49153;SDS011;49455;52.252;9.124;2022-09-29T07:49:55;33.75;;;22.13;;
49153;SDS011;49455;52.252;9.124;2022-09-29T07:54:55;37.58;;;22.73;;
49153;SDS011;49455;52.252;9.124;2022-09-29T07:59:56;36.83;;;22.83;;
49153;SDS011;49455;52.252;9.124;2022-09-29T08:04:56;32.28;;;21.63;;
49153;SDS011;49455;52.252;9.124;2022-09-29T08:09:57;38.25;;;23.05;;
49153;SDS011;49455;52.252;9.124;2022-09-29T08:14:57;34.08;;;21.88;;
49153;SDS011;49455;52.252;9.124;2022-09-29T08:19:57;36.28;;;22.45;;
49153;SDS011;49455;52.252;9.124;2022-09-29T08:24:58;31.10;;;21.00;;
49153;SDS011;49455;52.252;9.124;2022-09-29T08:29:58;33.45;;;22.52;;
49153;SDS011;49455;52.252;9.124;2022-09-29T08:34:59;31.90;;;21.58;;
49153;SDS011;49455;52.252;9.124;2022-09-29T08:39:59;30.65;;;20.20;;
49153;SDS011;49455;52.252;9.124;2022-09-29T08:45:01;31.95;;;21.70;;
49153;SDS011;49455;52.252;9.124;2022-09-29T08:50:10;30.65;;;21.35;;
49153;SDS011;49455;52.252;9.124;2022-09-29T09:01:00;31.60;;;20.55;;
49153;SDS011;49455;52.252;9.124;2022-09-29T09:28:04;23.35;;;15.98;;
49153;SDS011;49455;52.252;9.124;2022-09-29T09:33:18;24.50;;;16.50;;
49153;SDS011;49455;52.252;9.124;2022-09-29T09:38:26;28.80;;;20.45;;
49153;SDS011;49455;52.252;9.124;2022-09-29T09:43:41;26.27;;;18.00;;
49153;SDS011;49455;52.252;9.124;2022-09-29T09:53:52;23.13;;;15.43;;
49153;SDS011;49455;52.252;9.124;2022-09-29T10:04:13;21.98;;;15.52;;
49153;SDS011;49455;52.252;9.124;2022-09-29T10:09:13;23.20;;;14.50;;
49153;SDS011;49455;52.252;9.124;2022-09-29T10:14:25;22.40;;;16.03;;
49153;SDS011;49455;52.252;9.124;2022-09-29T10:30:23;14.85;;;12.45;;
49153;SDS011;49455;52.252;9.124;2022-09-29T10:35:35;14.30;;;11.63;;
49153;SDS011;49455;52.252;9.124;2022-09-29T10:40:38;15.05;;;10.90;;
49153;SDS011;49455;52.252;9.124;2022-09-29T10:45:53;15.10;;;10.68;;
49153;SDS011;49455;52.252;9.124;2022-09-29T10:51:00;14.18;;;10.60;;
49153;SDS011;49455;52.252;9.124;2022-09-29T10:56:16;15.70;;;10.60;;
49153;SDS011;49455;52.252;9.124;2022-09-29T11:01:19;14.63;;;10.68;;
49153;SDS011;49455;52.252;9.124;2022-09-29T11:06:24;12.52;;;9.20;;
49153;SDS011;49455;52.252;9.124;2022-09-29T11:11:28;10.52;;;7.50;;
49153;SDS011;49455;52.252;9.124;2022-09-29T11:16:34;10.50;;;7.38;;
49153;SDS011;49455;52.252;9.124;2022-09-29T11:21:56;10.80;;;7.45;;
49153;SDS011;49455;52.252;9.124;2022-09-29T12:20:22;13.02;;;8.77;;
49153;SDS011;49455;52.252;9.124;2022-09-29T12:25:26;12.65;;;8.35;;
49153;SDS011;49455;52.252;9.124;2022-09-29T12:30:32;11.68;;;8.45;;
49153;SDS011;49455;52.252;9.124;2022-09-29T12:35:53;13.63;;;8.57;;
49153;SDS011;49455;52.252;9.124;2022-09-29T12:41:20;12.95;;;8.38;;
49153;SDS011;49455;52.252;9.124;2022-09-29T12:46:32;11.48;;;7.38;;
49153;SDS011;49455;52.252;9.124;2022-09-29T12:51:40;7.88;;;5.97;;
49153;SDS011;49455;52.252;9.124;2022-09-29T13:28:28;3.60;;;2.53;;
49153;SDS011;49455;52.252;9.124;2022-09-29T13:33:31;3.97;;;2.45;;
49153;SDS011;49455;52.252;9.124;2022-09-29T13:38:33;3.65;;;2.95;;
49153;SDS011;49455;52.252;9.124;2022-09-29T13:59:27;5.93;;;3.20;;
49153;SDS011;49455;52.252;9.124;2022-09-29T14:09:41;2.20;;;2.00;;
49153;SDS011;49455;52.252;9.124;2022-09-29T14:14:50;4.72;;;2.63;;
49153;SDS011;49455;52.252;9.124;2022-09-29T14:30:42;2.83;;;1.60;;
49153;SDS011;49455;52.252;9.124;2022-09-29T14:46:51;2.90;;;1.60;;
49153;SDS011;49455;52.252;9.124;2022-09-29T15:02:26;2.75;;;1.40;;
49153;SDS011;49455;52.252;9.124;2022-09-29T15:07:28;2.97;;;1.55;;
49153;SDS011;49455;52.252;9.124;2022-09-29T15:12:29;3.28;;;1.70;;
49153;SDS011;49455;52.252;9.124;2022-09-29T15:28:13;3.05;;;1.25;;
49153;SDS011;49455;52.252;9.124;2022-09-29T15:43:24;2.47;;;1.05;;
49153;SDS011;49455;52.252;9.124;2022-09-29T15:48:27;3.67;;;1.40;;
49153;SDS011;49455;52.252;9.124;2022-09-29T16:03:33;2.53;;;1.47;;
49153;SDS011;49455;52.252;9.124;2022-09-29T16:08:44;1.95;;;1.75;;
49153;SDS011;49455;52.252;9.124;2022-09-29T16:13:49;8.27;;;5.30;;
49153;SDS011;49455;52.252;9.124;2022-09-29T16:18:52;5.93;;;3.72;;
49153;SDS011;49455;52.252;9.124;2022-09-29T16:29:32;6.82;;;4.65;;
49153;SDS011;49455;52.252;9.124;2022-09-29T16:34:34;5.20;;;3.05;;
49153;SDS011;49455;52.252;9.124;2022-09-29T16:39:41;4.00;;;3.00;;
49153;SDS011;49455;52.252;9.124;2022-09-29T16:44:43;3.55;;;1.90;;
49153;SDS011;49455;52.252;9.124;2022-09-29T16:49:48;5.50;;;1.88;;
49153;SDS011;49455;52.252;9.124;2022-09-29T16:54:51;1.83;;;1.60;;
49153;SDS011;49455;52.252;9.124;2022-09-29T16:59:54;3.15;;;1.60;;
49153;SDS011;49455;52.252;9.124;2022-09-29T17:04:57;5.82;;;2.20;;
49153;SDS011;49455;52.252;9.124;2022-09-29T17:09:58;4.75;;;2.08;;
49153;SDS011;49455;52.252;9.124;2022-09-29T17:14:59;4.80;;;2.30;;
49153;SDS011;49455;52.252;9.124;2022-09-29T17:20:00;2.95;;;2.00;;
49153;SDS011;49455;52.252;9.124;2022-09-29T17:25:01;4.57;;;1.90;;
49153;SDS011;49455;52.252;9.124;2022-09-29T17:30:02;3.15;;;2.33;;
49153;SDS011;49455;52.252;9.124;2022-09-29T17:35:04;4.95;;;2.08;;
49153;SDS011;49455;52.252;9.124;2022-09-29T17:45:24;4.85;;;2.47;;
49153;SDS011;49455;52.252;9.124;2022-09-29T17:50:35;11.43;;;9.63;;
49153;SDS011;49455;52.252;9.124;2022-09-29T17:55:39;7.85;;;4.25;;
49153;SDS011;49455;52.252;9.124;2022-09-29T18:00:41;4.80;;;2.43;;
49153;SDS011;49455;52.252;9.124;2022-09-29T18:05:52;5.70;;;2.90;;
49153;SDS011;49455;52.252;9.124;2022-09-29T18:10:58;12.32;;;9.32;;
49153;SDS011;49455;52.252;9.124;2022-09-29T18:16:00;5.93;;;4.60;;
49153;SDS011;49455;52.252;9.124;2022-09-29T18:21:00;19.33;;;12.73;;
49153;SDS011;49455;52.252;9.124;2022-09-29T18:26:01;29.02;;;18.95;;
49153;SDS011;49455;52.252;9.124;2022-09-29T18:36:05;12.25;;;6.47;;
49153;SDS011;49455;52.252;9.124;2022-09-29T18:41:05;25.73;;;15.88;;
49153;SDS011;49455;52.252;9.124;2022-09-29T18:46:11;10.70;;;7.03;;
49153;SDS011;49455;52.252;9.124;2022-09-29T18:51:12;4.90;;;3.63;;
49153;SDS011;49455;52.252;9.124;2022-09-29T18:56:13;5.90;;;4.70;;
49153;SDS011;49455;52.252;9.124;2022-09-29T19:01:17;6.95;;;5.85;;
49153;SDS011;49455;52.252;9.124;2022-09-29T19:06:22;11.75;;;6.72;;
49153;SDS011;49455;52.252;9.124;2022-09-29T19:11:23;9.18;;;4.93;;
49153;SDS011;49455;52.252;9.124;2022-09-29T19:16:25;9.63;;;4.68;;
49153;SDS011;49455;52.252;9.124;2022-09-29T19:21:25;14.57;;;6.18;;
49153;SDS011;49455;52.252;9.124;2022-09-29T19:26:25;12.68;;;6.13;;
49153;SDS011;49455;52.252;9.124;2022-09-29T19:31:26;7.80;;;4.95;;
49153;SDS011;49455;52.252;9.124;2022-09-29T19:36:26;17.48;;;10.30;;
49153;SDS011;49455;52.252;9.124;2022-09-29T19:41:27;21.27;;;15.10;;
49153;SDS011;49455;52.252;9.124;2022-09-29T19:46:27;19.35;;;10.50;;
49153;SDS011;49455;52.252;9.124;2022-09-29T19:51:28;27.33;;;17.30;;
49153;SDS011;49455;52.252;9.124;2022-09-29T19:56:28;17.83;;;11.25;;
49153;SDS011;49455;52.252;9.124;2022-09-29T20:01:29;30.85;;;19.20;;
49153;SDS011;49455;52.252;9.124;2022-09-29T20:06:29;20.40;;;13.65;;
49153;SDS011;49455;52.252;9.124;2022-09-29T20:11:30;8.15;;;5.90;;
49153;SDS011;49455;52.252;9.124;2022-09-29T20:16:35;7.55;;;5.63;;
49153;SDS011;49455;52.252;9.124;2022-09-29T20:21:37;7.15;;;6.45;;
49153;SDS011;49455;52.252;9.124;2022-09-29T20:26:37;7.78;;;5.82;;
49153;SDS011;49455;52.252;9.124;2022-09-29T20:31:38;6.63;;;5.35;;
49153;SDS011;49455;52.252;9.124;2022-09-29T20:36:38;9.30;;;5.38;;
49153;SDS011;49455;52.252;9.124;2022-09-29T20:41:40;6.10;;;5.20;;
49153;SDS011;49455;52.252;9.124;2022-09-29T20:46:41;6.57;;;5.55;;
49153;SDS011;49455;52.252;9.124;2022-09-29T20:51:42;8.87;;;5.20;;
49153;SDS011;49455;52.252;9.124;2022-09-29T20:56:43;9.77;;;5.80;;
49153;SDS011;49455;52.252;9.124;2022-09-29T21:01:44;6.65;;;5.05;;
49153;SDS011;49455;52.252;9.124;2022-09-29T21:06:45;9.20;;;5.65;;
49153;SDS011;49455;52.252;9.124;2022-09-29T21:11:47;7.90;;;4.68;;
49153;SDS011;49455;52.252;9.124;2022-09-29T21:16:49;7.88;;;5.10;;
49153;SDS011;49455;52.252;9.124;2022-09-29T21:21:51;6.05;;;5.45;;
49153;SDS011;49455;52.252;9.124;2022-09-29T21:26:52;9.60;;;5.88;;
49153;SDS011;49455;52.252;9.124;2022-09-29T21:31:56;8.57;;;6.70;;
49153;SDS011;49455;52.252;9.124;2022-09-29T21:36:56;10.52;;;7.35;;
49153;SDS011;49455;52.252;9.124;2022-09-29T21:41:57;8.32;;;7.05;;
49153;SDS011;49455;52.252;9.124;2022-09-29T21:46:57;10.23;;;6.95;;
49153;SDS011;49455;52.252;9.124;2022-09-29T21:51:58;7.63;;;6.82;;
49153;SDS011;49455;52.252;9.124;2022-09-29T21:56:58;8.02;;;6.35;;
49153;SDS011;49455;52.252;9.124;2022-09-29T22:01:58;7.95;;;6.70;;
49153;SDS011;49455;52.252;9.124;2022-09-29T22:06:59;8.15;;;7.35;;
49153;SDS011;49455;52.252;9.124;2022-09-29T22:11:59;8.07;;;6.55;;
49153;SDS011;49455;52.252;9.124;2022-09-29T22:17:00;10.30;;;7.43;;
49153;SDS011;49455;52.252;9.124;2022-09-29T22:22:00;8.55;;;7.68;;
49153;SDS011;49455;52.252;9.124;2022-09-29T22:27:01;8.45;;;7.65;;
49153;SDS011;49455;52.252;9.124;2022-09-29T22:32:01;7.57;;;6.78;;
